createdAt,value
2022-11-19T00:00:16.856Z,39.17
2022-11-19T00:02:18.394Z,49.75
2022-11-19T00:04:19.964Z,49.50
2022-11-19T00:06:26.470Z,30.92
2022-11-19T00:08:27.963Z,38.20
2022-11-19T00:10:29.373Z,37.25
2022-11-19T00:12:49.649Z,36.20
2022-11-19T00:14:51.063Z,22.05
2022-11-19T00:16:52.597Z,33.92
2022-11-19T00:18:54.090Z,25.63
2022-11-19T00:20:56.442Z,18.73
2022-11-19T00:22:58.433Z,22.92
2022-11-19T00:24:59.866Z,23.17
2022-11-19T00:27:01.442Z,19.75
2022-11-19T00:29:03.595Z,18.98
2022-11-19T00:31:07.786Z,31.50
2022-11-19T00:33:09.262Z,23.52
2022-11-19T00:35:11.296Z,22.92
2022-11-19T00:37:12.755Z,22.08
2022-11-19T00:39:14.266Z,17.38
2022-11-19T00:41:15.736Z,18.08
2022-11-19T00:43:36.276Z,24.55
2022-11-19T00:45:37.787Z,18.38
2022-11-19T00:47:39.254Z,23.50
2022-11-19T00:49:40.854Z,10.82
2022-11-19T00:51:42.346Z,20.60
2022-11-19T00:53:43.996Z,26.63
2022-11-19T00:55:45.507Z,20.50
2022-11-19T00:57:46.991Z,31.38
2022-11-19T00:59:48.425Z,22.70
2022-11-19T01:01:49.867Z,13.18
2022-11-19T01:03:52.019Z,14.80
2022-11-19T01:05:53.511Z,11.07
2022-11-19T01:07:55.023Z,16.42
2022-11-19T01:09:56.475Z,10.30
2022-11-19T01:11:57.981Z,11.27
2022-11-19T01:14:01.125Z,11.20
2022-11-19T01:16:15.271Z,14.57
2022-11-19T01:18:18.070Z,12.43
2022-11-19T01:20:19.611Z,17.98
2022-11-19T01:22:21.098Z,15.90
2022-11-19T01:24:22.657Z,9.68
2022-11-19T01:26:24.836Z,20.05
2022-11-19T01:28:26.416Z,14.20
2022-11-19T01:30:28.148Z,21.75
2022-11-19T01:32:29.553Z,15.93
2022-11-19T01:34:31.082Z,17.77
2022-11-19T01:36:32.519Z,14.98
2022-11-19T01:38:34.277Z,18.05
2022-11-19T01:40:43.926Z,26.48
2022-11-19T01:42:51.338Z,13.05
2022-11-19T01:45:03.192Z,21.13
2022-11-19T01:47:04.638Z,20.17
2022-11-19T01:49:13.066Z,31.35
2022-11-19T01:51:35.669Z,26.63
2022-11-19T01:53:37.165Z,18.38
2022-11-19T01:55:41.530Z,16.25
2022-11-19T01:57:43.101Z,11.15
2022-11-19T01:59:48.977Z,17.35
2022-11-19T02:01:50.516Z,17.50
2022-11-19T02:03:52.537Z,11.88
2022-11-19T02:05:54.433Z,9.98
2022-11-19T02:07:58.837Z,15.70
2022-11-19T02:10:03.129Z,18.77
2022-11-19T02:12:29.493Z,19.25
2022-11-19T02:14:54.531Z,17.08
2022-11-19T02:17:13.608Z,14.07
2022-11-19T02:19:52.586Z,12.80
2022-11-19T02:22:23.901Z,14.20
2022-11-19T02:24:31.071Z,16.00
2022-11-19T02:26:59.444Z,11.98
2022-11-19T02:29:27.147Z,17.42
2022-11-19T02:31:41.051Z,17.88
2022-11-19T02:34:00.166Z,17.75
2022-11-19T02:36:26.286Z,20.80
2022-11-19T02:38:58.134Z,19.55
2022-11-19T02:41:26.288Z,17.38
2022-11-19T02:43:35.700Z,18.27
2022-11-19T02:45:46.969Z,20.42
2022-11-19T02:47:53.282Z,20.25
2022-11-19T02:49:59.698Z,20.98
2022-11-19T02:52:01.778Z,19.92
2022-11-19T02:54:05.025Z,15.07
2022-11-19T02:56:33.576Z,17.05
2022-11-19T02:58:56.695Z,16.83
2022-11-19T03:01:17.944Z,16.83
2022-11-19T03:03:40.448Z,16.13
2022-11-19T03:05:48.496Z,19.80
2022-11-19T03:07:50.582Z,18.52
2022-11-19T03:09:55.958Z,17.10
2022-11-19T03:12:23.294Z,18.63
2022-11-19T03:14:48.178Z,15.60
2022-11-19T03:16:57.187Z,16.30
2022-11-19T03:19:05.401Z,13.02
2022-11-19T03:21:13.407Z,16.48
2022-11-19T03:23:32.006Z,14.73
2022-11-19T03:25:40.581Z,14.50
2022-11-19T03:27:45.742Z,9.80
2022-11-19T03:29:51.723Z,12.55
2022-11-19T03:32:00.728Z,13.32
2022-11-19T03:34:08.116Z,3.95
2022-11-19T03:36:16.908Z,12.93
2022-11-19T03:38:41.107Z,18.65
2022-11-19T03:40:44.481Z,16.77
2022-11-19T03:42:49.819Z,21.38
2022-11-19T03:44:56.970Z,16.13
2022-11-19T03:47:04.334Z,19.45
2022-11-19T03:49:09.258Z,11.43
2022-11-19T03:51:20.075Z,17.63
2022-11-19T03:53:22.342Z,16.17
2022-11-19T03:55:33.043Z,18.02
2022-11-19T03:57:34.468Z,21.77
2022-11-19T03:59:36.049Z,23.30
2022-11-19T04:01:38.193Z,21.90
2022-11-19T04:03:40.025Z,17.02
2022-11-19T04:05:41.527Z,20.88
2022-11-19T04:07:43.032Z,22.85
2022-11-19T04:09:44.926Z,29.23
2022-11-19T04:13:46.827Z,22.38
2022-11-19T04:15:48.264Z,27.13
2022-11-19T04:17:49.823Z,24.83
2022-11-19T04:19:51.321Z,22.25
2022-11-19T04:21:52.839Z,27.00
2022-11-19T04:23:54.437Z,27.55
2022-11-19T04:25:55.860Z,24.98
2022-11-19T04:27:57.274Z,28.10
2022-11-19T04:29:58.794Z,25.70
2022-11-19T04:32:00.227Z,27.40
2022-11-19T04:34:01.806Z,28.25
2022-11-19T04:36:03.647Z,33.13
2022-11-19T04:38:05.119Z,32.95
2022-11-19T04:40:07.329Z,20.48
2022-11-19T04:42:08.800Z,23.33
2022-11-19T04:44:10.254Z,21.95
2022-11-19T04:46:11.850Z,27.23
2022-11-19T04:48:13.303Z,27.42
2022-11-19T04:50:14.742Z,26.23
2022-11-19T04:52:16.203Z,26.92
2022-11-19T04:54:17.726Z,26.58
2022-11-19T04:56:19.227Z,29.23
2022-11-19T04:58:20.669Z,30.60
2022-11-19T05:00:22.102Z,24.80
2022-11-19T05:02:23.526Z,31.83
2022-11-19T05:04:24.948Z,27.30
2022-11-19T05:06:26.427Z,27.02
2022-11-19T05:08:27.945Z,28.63
2022-11-19T05:10:29.440Z,23.33
2022-11-19T05:12:30.988Z,27.73
2022-11-19T05:14:32.566Z,23.80
2022-11-19T05:16:34.115Z,25.58
2022-11-19T05:18:35.730Z,25.23
2022-11-19T05:20:37.168Z,25.35
2022-11-19T05:22:38.634Z,27.15
2022-11-19T05:24:40.134Z,26.10
2022-11-19T05:26:41.567Z,23.00
2022-11-19T05:28:43.066Z,21.05
2022-11-19T05:30:44.603Z,24.88
2022-11-19T05:32:47.233Z,20.23
2022-11-19T05:34:48.676Z,26.65
2022-11-19T05:36:50.130Z,24.17
2022-11-19T05:38:51.702Z,22.77
2022-11-19T05:40:53.117Z,24.60
2022-11-19T05:42:54.685Z,24.90
2022-11-19T05:44:56.111Z,24.92
2022-11-19T05:46:59.726Z,24.20
2022-11-19T05:49:01.186Z,27.90
2022-11-19T05:51:03.010Z,27.42
2022-11-19T05:53:05.272Z,27.25
2022-11-19T05:55:07.140Z,23.00
2022-11-19T05:57:08.592Z,28.98
2022-11-19T05:59:10.020Z,23.13
2022-11-19T06:01:11.549Z,23.58
2022-11-19T06:03:13.050Z,24.77
2022-11-19T06:05:14.681Z,22.33
2022-11-19T06:07:16.311Z,27.33
2022-11-19T06:09:17.965Z,26.35
2022-11-19T06:11:38.035Z,26.92
2022-11-19T06:13:39.524Z,26.10
2022-11-19T06:15:40.936Z,26.17
2022-11-19T06:17:42.663Z,27.00
2022-11-19T06:19:44.112Z,23.65
2022-11-19T06:21:46.256Z,23.00
2022-11-19T06:23:47.695Z,26.92
2022-11-19T06:25:50.365Z,23.23
2022-11-19T06:27:51.806Z,24.23
2022-11-19T06:29:56.193Z,26.40
2022-11-19T06:31:57.909Z,22.58
2022-11-19T06:33:59.973Z,23.27
2022-11-19T06:36:01.389Z,22.38
2022-11-19T06:38:02.859Z,25.02
2022-11-19T06:40:04.776Z,24.25
2022-11-19T06:42:25.249Z,23.13
2022-11-19T06:44:26.715Z,24.17
2022-11-19T06:46:28.269Z,21.52
2022-11-19T06:48:29.714Z,17.20
2022-11-19T06:50:31.679Z,23.38
2022-11-19T06:52:33.139Z,23.00
2022-11-19T06:54:36.651Z,22.80
2022-11-19T06:56:40.352Z,25.95
2022-11-19T06:58:41.789Z,30.00
2022-11-19T07:00:43.291Z,53.45
2022-11-19T07:02:44.804Z,64.03
2022-11-19T07:04:46.220Z,52.13
2022-11-19T07:06:48.226Z,55.35
2022-11-19T07:08:49.768Z,36.28
2022-11-19T07:10:51.477Z,43.45
2022-11-19T07:12:52.893Z,47.05
2022-11-19T07:14:55.262Z,42.10
2022-11-19T07:16:59.049Z,21.85
2022-11-19T07:19:02.330Z,28.70
2022-11-19T07:21:03.851Z,25.73
2022-11-19T07:23:10.497Z,23.75
2022-11-19T07:25:12.989Z,22.90
2022-11-19T07:27:15.818Z,23.20
2022-11-19T07:29:17.924Z,24.25
2022-11-19T07:31:19.654Z,23.73
2022-11-19T07:33:21.073Z,23.90
2022-11-19T07:35:22.579Z,21.70
2022-11-19T07:37:24.080Z,20.90
2022-11-19T07:39:25.620Z,23.67
2022-11-19T07:41:45.847Z,26.08
2022-11-19T07:43:47.274Z,24.95
2022-11-19T07:45:49.058Z,31.75
2022-11-19T07:47:50.571Z,21.83
2022-11-19T07:49:52.034Z,26.05
2022-11-19T07:51:54.456Z,26.15
2022-11-19T07:53:56.348Z,31.92
2022-11-19T07:56:00.298Z,28.80
2022-11-19T07:58:01.803Z,34.75
2022-11-19T08:00:05.855Z,30.17
2022-11-19T08:02:10.295Z,30.55
2022-11-19T08:04:11.786Z,27.95
2022-11-19T08:06:15.457Z,25.67
2022-11-19T08:08:16.945Z,22.92
2022-11-19T08:10:18.515Z,24.55
2022-11-19T08:12:19.976Z,54.20
2022-11-19T08:14:21.392Z,38.33
2022-11-19T08:16:41.324Z,27.08
2022-11-19T08:18:44.868Z,29.20
2022-11-19T08:20:48.388Z,30.27
2022-11-19T08:22:49.830Z,29.52
2022-11-19T08:24:51.245Z,29.15
2022-11-19T08:26:52.765Z,28.17
2022-11-19T08:28:54.518Z,28.83
2022-11-19T08:30:56.046Z,28.63
2022-11-19T08:32:57.572Z,25.83
2022-11-19T08:34:59.037Z,25.25
2022-11-19T08:37:00.649Z,33.03
2022-11-19T08:39:04.181Z,28.92
2022-11-19T08:41:24.517Z,63.95
2022-11-19T08:43:25.986Z,30.08
2022-11-19T08:45:38.508Z,38.22
2022-11-19T08:47:39.937Z,33.35
2022-11-19T08:49:41.607Z,33.88
2022-11-19T08:51:43.070Z,23.20
2022-11-19T08:53:44.553Z,33.60
2022-11-19T08:55:50.821Z,34.53
2022-11-19T08:57:52.422Z,38.67
2022-11-19T08:59:53.862Z,32.08
2022-11-19T09:01:55.317Z,28.90
2022-11-19T09:03:56.901Z,28.58
2022-11-19T09:05:59.899Z,21.20
2022-11-19T09:08:01.448Z,21.08
2022-11-19T09:10:02.889Z,20.70
2022-11-19T09:12:04.634Z,17.38
2022-11-19T09:14:06.167Z,15.20
2022-11-19T09:16:08.976Z,16.40
2022-11-19T09:18:10.399Z,17.55
2022-11-19T09:20:12.373Z,27.17
2022-11-19T09:22:13.879Z,16.83
2022-11-19T09:24:15.517Z,17.60
2022-11-19T09:26:18.217Z,19.63
2022-11-19T09:28:19.629Z,15.38
2022-11-19T09:30:21.103Z,18.27
2022-11-19T09:32:25.387Z,19.65
2022-11-19T09:34:27.440Z,18.38
2022-11-19T09:36:29.153Z,14.80
2022-11-19T09:38:32.005Z,12.88
2022-11-19T09:40:33.502Z,13.48
2022-11-19T09:42:49.267Z,17.70
2022-11-19T09:45:07.541Z,27.58
2022-11-19T09:47:27.241Z,53.83
2022-11-19T09:51:34.109Z,20.33
2022-11-19T09:53:51.342Z,23.30
2022-11-19T09:55:53.956Z,25.17
2022-11-19T09:57:58.196Z,33.63
2022-11-19T10:00:01.878Z,20.13
2022-11-19T10:02:16.275Z,23.13
2022-11-19T10:04:23.021Z,18.48
2022-11-19T10:06:48.987Z,12.98
2022-11-19T10:09:06.270Z,13.80
2022-11-19T10:11:13.793Z,18.52
2022-11-19T10:13:31.234Z,15.20
2022-11-19T10:15:38.255Z,18.42
2022-11-19T10:17:53.928Z,17.73
2022-11-19T10:20:32.336Z,15.60
2022-11-19T10:23:02.854Z,13.93
2022-11-19T10:25:16.149Z,16.70
2022-11-19T10:27:49.958Z,11.98
2022-11-19T10:29:54.953Z,12.77
2022-11-19T10:32:20.065Z,11.20
2022-11-19T10:34:24.336Z,12.57
2022-11-19T10:36:32.933Z,17.17
2022-11-19T10:38:41.464Z,12.98
2022-11-19T10:40:48.922Z,12.10
2022-11-19T10:42:55.370Z,15.13
2022-11-19T10:45:03.172Z,13.85
2022-11-19T10:47:28.984Z,14.70
2022-11-19T10:49:34.649Z,12.27
2022-11-19T10:51:41.858Z,38.45
2022-11-19T10:53:45.531Z,20.63
2022-11-19T10:55:54.438Z,16.15
2022-11-19T10:58:14.570Z,24.67
2022-11-19T11:00:17.536Z,29.58
2022-11-19T11:02:27.989Z,46.25
2022-11-19T11:04:30.618Z,20.60
2022-11-19T11:06:59.303Z,15.48
2022-11-19T11:09:00.947Z,23.35
2022-11-19T11:11:02.492Z,18.40
2022-11-19T11:13:44.034Z,17.08
2022-11-19T11:15:47.851Z,15.95
2022-11-19T11:18:04.893Z,23.80
2022-11-19T11:20:07.906Z,26.55
2022-11-19T11:22:09.624Z,27.05
2022-11-19T11:24:13.758Z,13.70
2022-11-19T11:26:21.041Z,15.13
2022-11-19T11:28:24.062Z,15.40
2022-11-19T11:30:25.642Z,12.50
2022-11-19T11:32:30.834Z,16.60
2022-11-19T11:34:36.650Z,14.93
2022-11-19T11:36:38.217Z,22.00
2022-11-19T11:38:48.064Z,78.65
2022-11-19T11:43:29.896Z,17.65
2022-11-19T11:45:33.975Z,14.27
2022-11-19T11:47:38.519Z,18.17
2022-11-19T11:49:46.776Z,15.77
2022-11-19T11:51:59.654Z,20.20
2022-11-19T11:54:21.246Z,15.20
2022-11-19T11:56:22.846Z,25.40
2022-11-19T11:58:27.180Z,34.63
2022-11-19T12:00:37.484Z,48.03
2022-11-19T12:02:39.087Z,21.90
2022-11-19T12:04:40.606Z,21.30
2022-11-19T12:06:53.598Z,16.00
2022-11-19T12:09:00.513Z,22.73
2022-11-19T12:11:02.109Z,17.92
2022-11-19T12:13:41.303Z,14.13
2022-11-19T12:16:03.726Z,14.23
2022-11-19T12:18:15.398Z,13.32
2022-11-19T12:20:23.738Z,34.00
2022-11-19T12:22:39.522Z,19.35
2022-11-19T12:24:40.905Z,12.65
2022-11-19T12:27:11.632Z,16.42
2022-11-19T12:29:21.858Z,18.25
2022-11-19T12:31:30.340Z,23.25
2022-11-19T12:33:50.453Z,41.30
2022-11-19T12:36:04.181Z,31.98
2022-11-19T12:38:36.316Z,55.22
2022-11-19T12:41:00.034Z,67.60
2022-11-19T12:43:21.386Z,162.10
2022-11-19T12:45:37.923Z,32.58
2022-11-19T12:48:04.283Z,83.85
2022-11-19T12:50:18.937Z,109.70
2022-11-19T12:53:06.286Z,150.90
2022-11-19T12:55:45.494Z,103.53
2022-11-19T12:57:59.213Z,64.95
2022-11-19T13:00:15.909Z,66.90
2022-11-19T13:02:28.564Z,50.63
2022-11-19T13:04:42.770Z,63.88
2022-11-19T13:06:57.923Z,97.63
2022-11-19T13:09:03.521Z,32.90
2022-11-19T13:11:10.671Z,19.38
2022-11-19T13:13:15.718Z,29.67
2022-11-19T13:15:20.366Z,10.63
2022-11-19T13:17:37.325Z,83.35
2022-11-19T13:19:39.924Z,24.23
2022-11-19T13:21:56.181Z,17.13
2022-11-19T13:24:06.781Z,40.80
2022-11-19T13:26:31.935Z,38.30
2022-11-19T13:28:43.875Z,94.72
2022-11-19T13:30:48.682Z,14.18
2022-11-19T13:33:19.361Z,17.92
2022-11-19T13:35:23.908Z,37.60
2022-11-19T13:37:45.692Z,44.50
2022-11-19T13:40:02.996Z,19.70
2022-11-19T13:42:26.045Z,36.88
2022-11-19T13:44:41.401Z,40.63
2022-11-19T13:46:54.993Z,39.88
2022-11-19T13:49:02.502Z,83.93
2022-11-19T13:51:09.818Z,39.63
2022-11-19T13:53:18.753Z,44.00
2022-11-19T13:55:29.033Z,27.52
2022-11-19T13:57:42.122Z,45.60
2022-11-19T13:59:46.599Z,44.83
2022-11-19T14:02:33.975Z,84.60
2022-11-19T14:04:52.283Z,55.03
2022-11-19T14:07:08.986Z,40.70
2022-11-19T14:09:35.193Z,51.65
2022-11-19T14:11:58.537Z,74.63
2022-11-19T14:14:05.942Z,26.45
2022-11-19T14:16:51.189Z,41.60
2022-11-19T14:19:18.975Z,16.42
2022-11-19T14:21:45.580Z,14.15
2022-11-19T14:24:09.610Z,30.20
2022-11-19T14:26:22.854Z,18.50
2022-11-19T14:28:40.542Z,18.35
2022-11-19T14:31:03.197Z,19.00
2022-11-19T14:33:43.496Z,17.13
2022-11-19T14:35:45.304Z,17.90
2022-11-19T14:37:53.007Z,15.93
2022-11-19T14:40:02.641Z,15.65
2022-11-19T14:42:22.215Z,18.60
2022-11-19T14:46:28.737Z,22.67
2022-11-19T14:48:40.587Z,14.25
2022-11-19T14:50:42.112Z,17.42
2022-11-19T14:52:52.943Z,18.10
2022-11-19T14:54:58.473Z,19.02
2022-11-19T14:57:07.573Z,29.20
2022-11-19T14:59:16.739Z,34.67
2022-11-19T15:01:21.275Z,44.33
2022-11-19T15:03:26.517Z,58.85
2022-11-19T15:05:33.297Z,86.30
2022-11-19T15:07:39.444Z,183.48
2022-11-19T15:10:03.515Z,162.55
2022-11-19T15:12:04.991Z,84.13
2022-11-19T15:14:29.739Z,160.20
2022-11-19T15:16:34.131Z,142.43
2022-11-19T15:18:41.503Z,133.55
2022-11-19T15:21:01.520Z,140.63
2022-11-19T15:23:10.569Z,166.15
2022-11-19T15:25:31.104Z,434.48
2022-11-19T15:28:00.232Z,414.27
2022-11-19T15:30:16.611Z,173.25
2022-11-19T15:32:33.202Z,234.00
2022-11-19T15:35:09.855Z,552.70
2022-11-19T15:37:15.678Z,168.80
2022-11-19T15:39:42.251Z,233.20
2022-11-19T15:42:00.448Z,141.43
2022-11-19T15:44:07.512Z,112.78
2022-11-19T15:46:32.995Z,81.55
2022-11-19T15:49:00.053Z,71.40
2022-11-19T15:51:03.236Z,59.85
2022-11-19T15:53:21.366Z,69.07
2022-11-19T15:55:27.832Z,86.80
2022-11-19T15:57:29.350Z,71.43
2022-11-19T15:59:34.893Z,64.30
2022-11-19T16:01:36.698Z,75.93
2022-11-19T16:03:39.214Z,83.30
2022-11-19T16:05:44.082Z,87.03
2022-11-19T16:07:48.807Z,86.32
2022-11-19T16:09:50.809Z,84.10
2022-11-19T16:12:11.528Z,85.15
2022-11-19T16:14:46.279Z,96.57
2022-11-19T16:17:10.318Z,105.32
2022-11-19T16:19:16.185Z,98.90
2022-11-19T16:21:32.768Z,127.68
2022-11-19T16:23:54.527Z,140.85
2022-11-19T16:26:01.926Z,162.43
2022-11-19T16:28:10.717Z,112.57
2022-11-19T16:30:20.249Z,105.45
2022-11-19T16:32:26.193Z,103.25
2022-11-19T16:34:32.762Z,97.25
2022-11-19T16:36:34.277Z,107.75
2022-11-19T16:38:36.286Z,107.25
2022-11-19T16:40:56.587Z,106.00
2022-11-19T16:43:00.602Z,89.00
2022-11-19T16:45:17.192Z,88.85
2022-11-19T16:47:27.339Z,58.70
2022-11-19T16:49:30.176Z,62.58
2022-11-19T16:51:53.678Z,63.22
2022-11-19T16:53:55.126Z,63.20
2022-11-19T16:55:57.256Z,60.80
2022-11-19T16:58:01.785Z,52.72
2022-11-19T17:00:13.632Z,58.22
2022-11-19T17:02:19.108Z,65.30
2022-11-19T17:04:21.935Z,79.07
2022-11-19T17:06:25.685Z,62.65
2022-11-19T17:08:36.793Z,58.17
2022-11-19T17:10:38.254Z,59.38
2022-11-19T17:12:54.045Z,47.78
2022-11-19T17:14:58.560Z,56.22
2022-11-19T17:17:00.360Z,59.83
2022-11-19T17:19:15.030Z,65.75
2022-11-19T17:21:25.903Z,81.70
2022-11-19T17:23:45.798Z,103.13
2022-11-19T17:25:49.654Z,112.82
2022-11-19T17:27:54.603Z,135.50
2022-11-19T17:30:01.891Z,154.35
2022-11-19T17:32:03.914Z,153.63
2022-11-19T17:34:12.398Z,153.02
2022-11-19T17:36:14.153Z,144.40
2022-11-19T17:38:35.330Z,122.22
2022-11-19T17:40:36.926Z,279.48
2022-11-19T17:42:56.836Z,108.80
2022-11-19T17:45:00.346Z,72.38
2022-11-19T17:47:22.330Z,73.30
2022-11-19T17:49:24.833Z,78.18
2022-11-19T17:51:26.782Z,85.93
2022-11-19T17:53:28.310Z,96.10
2022-11-19T17:55:30.726Z,99.43
2022-11-19T17:57:32.505Z,97.43
2022-11-19T17:59:33.966Z,199.10
2022-11-19T18:01:35.545Z,237.95
2022-11-19T18:03:39.160Z,96.70
2022-11-19T18:05:44.888Z,85.95
2022-11-19T18:07:46.705Z,87.78
2022-11-19T18:09:48.206Z,81.55
2022-11-19T18:11:49.719Z,82.88
2022-11-19T18:13:55.067Z,84.50
2022-11-19T18:15:57.713Z,237.07
2022-11-19T18:17:59.117Z,281.95
2022-11-19T18:20:00.582Z,146.48
2022-11-19T18:22:02.063Z,115.43
2022-11-19T18:24:03.722Z,102.38
2022-11-19T18:26:05.245Z,96.07
2022-11-19T18:28:06.693Z,102.68
2022-11-19T18:30:08.723Z,114.30
2022-11-19T18:32:12.175Z,96.20
2022-11-19T18:34:18.293Z,112.70
2022-11-19T18:36:20.407Z,183.07
2022-11-19T18:38:22.004Z,391.02
2022-11-19T18:40:23.649Z,297.02
2022-11-19T18:42:25.934Z,227.70
2022-11-19T18:44:34.281Z,213.32
2022-11-19T18:46:35.871Z,162.50
2022-11-19T18:48:37.353Z,139.73
2022-11-19T18:50:38.846Z,111.13
2022-11-19T18:52:40.347Z,121.18
2022-11-19T18:54:41.871Z,150.02
2022-11-19T18:56:43.353Z,255.40
2022-11-19T18:58:44.926Z,286.98
2022-11-19T19:00:46.365Z,350.38
2022-11-19T19:02:47.779Z,320.05
2022-11-19T19:04:51.010Z,301.45
2022-11-19T19:06:52.805Z,237.88
2022-11-19T19:08:54.338Z,230.43
2022-11-19T19:11:16.866Z,197.40
2022-11-19T19:13:18.285Z,193.23
2022-11-19T19:15:19.782Z,204.48
2022-11-19T19:17:21.825Z,195.07
2022-11-19T19:19:23.647Z,190.77
2022-11-19T19:21:25.328Z,169.52
2022-11-19T19:23:27.018Z,160.55
2022-11-19T19:25:28.498Z,132.70
2022-11-19T19:27:30.071Z,124.68
2022-11-19T19:29:31.566Z,155.98
2022-11-19T19:31:33.260Z,295.33
2022-11-19T19:33:35.015Z,190.32
2022-11-19T19:35:39.259Z,183.88
2022-11-19T19:37:42.478Z,152.18
2022-11-19T19:39:43.979Z,168.68
2022-11-19T19:41:45.543Z,159.30
2022-11-19T19:43:48.743Z,161.65
2022-11-19T19:45:50.227Z,168.18
2022-11-19T19:47:51.712Z,183.82
2022-11-19T19:49:53.293Z,235.15
2022-11-19T19:51:54.916Z,196.93
2022-11-19T19:53:57.017Z,173.65
2022-11-19T19:56:06.258Z,141.07
2022-11-19T19:58:08.362Z,114.15
2022-11-19T20:00:11.784Z,139.73
2022-11-19T20:02:13.324Z,194.15
2022-11-19T20:04:14.943Z,164.07
2022-11-19T20:06:18.638Z,118.63
2022-11-19T20:08:20.205Z,104.88
2022-11-19T20:10:21.737Z,98.68
2022-11-19T20:12:23.320Z,126.72
2022-11-19T20:14:24.906Z,116.55
2022-11-19T20:16:29.694Z,104.15
2022-11-19T20:18:32.163Z,153.48
2022-11-19T20:20:33.759Z,120.22
2022-11-19T20:22:35.327Z,130.57
2022-11-19T20:24:36.829Z,128.63
2022-11-19T20:26:39.390Z,119.35
2022-11-19T20:28:41.443Z,120.07
2022-11-19T20:30:43.030Z,134.13
2022-11-19T20:32:44.586Z,134.88
2022-11-19T20:34:46.155Z,138.65
2022-11-19T20:36:47.876Z,121.93
2022-11-19T20:38:49.525Z,115.65
2022-11-19T20:41:03.009Z,145.30
2022-11-19T20:43:22.965Z,158.48
2022-11-19T20:45:24.475Z,200.73
2022-11-19T20:47:25.999Z,227.63
2022-11-19T20:49:35.667Z,207.82
2022-11-19T20:51:37.677Z,291.30
2022-11-19T20:53:39.520Z,140.63
2022-11-19T20:56:03.940Z,136.52
2022-11-19T20:58:02.741Z,145.00
2022-11-19T21:00:05.358Z,170.63
2022-11-19T21:02:06.987Z,210.05
2022-11-19T21:04:10.811Z,192.85
2022-11-19T21:06:12.351Z,157.85
2022-11-19T21:08:14.485Z,202.23
2022-11-19T21:10:16.246Z,169.05
2022-11-19T21:12:17.722Z,157.63
2022-11-19T21:14:19.221Z,136.85
2022-11-19T21:16:23.827Z,138.73
2022-11-19T21:18:26.216Z,158.38
2022-11-19T21:20:27.775Z,181.63
2022-11-19T21:22:29.406Z,177.88
2022-11-19T21:24:30.829Z,182.63
2022-11-19T21:26:32.296Z,136.50
2022-11-19T21:28:34.835Z,218.27
2022-11-19T21:30:36.406Z,157.18
2022-11-19T21:32:38.036Z,176.65
2022-11-19T21:34:41.807Z,284.85
2022-11-19T21:36:44.572Z,282.60
2022-11-19T21:38:46.077Z,226.95
2022-11-19T21:40:53.208Z,163.48
2022-11-19T21:42:54.643Z,165.25
2022-11-19T21:44:56.144Z,269.70
2022-11-19T21:46:57.587Z,241.57
2022-11-19T21:48:59.093Z,219.60
2022-11-19T21:51:05.629Z,169.15
2022-11-19T21:53:08.799Z,154.80
2022-11-19T21:55:10.548Z,133.23
2022-11-19T21:57:11.945Z,115.25
2022-11-19T21:59:13.588Z,112.78
2022-11-19T22:01:15.264Z,127.63
2022-11-19T22:03:16.789Z,126.43
2022-11-19T22:05:18.204Z,152.95
2022-11-19T22:07:19.693Z,191.43
2022-11-19T22:09:21.373Z,208.02
2022-11-19T22:11:29.035Z,199.82
2022-11-19T22:13:30.500Z,276.70
2022-11-19T22:15:31.953Z,373.38
2022-11-19T22:17:33.876Z,373.73
2022-11-19T22:19:36.020Z,326.85
2022-11-19T22:21:37.855Z,199.07
2022-11-19T22:23:39.786Z,201.63
2022-11-19T22:25:41.229Z,209.73
2022-11-19T22:27:42.705Z,213.63
2022-11-19T22:29:44.235Z,232.32
2022-11-19T22:31:45.713Z,210.13
2022-11-19T22:33:49.731Z,226.43
2022-11-19T22:35:51.181Z,346.48
2022-11-19T22:37:52.632Z,254.05
2022-11-19T22:39:54.094Z,272.17
2022-11-19T22:41:55.514Z,303.15
2022-11-19T22:43:58.298Z,314.23
2022-11-19T22:46:00.315Z,337.52
2022-11-19T22:48:01.779Z,264.90
2022-11-19T22:50:03.383Z,300.15
2022-11-19T22:52:04.943Z,254.40
2022-11-19T22:54:08.699Z,212.40
2022-11-19T22:56:12.532Z,238.13
2022-11-19T22:58:14.177Z,243.68
2022-11-19T23:00:43.075Z,205.48
2022-11-19T23:02:44.524Z,155.07
2022-11-19T23:04:45.966Z,157.95
2022-11-19T23:06:47.406Z,157.90
2022-11-19T23:08:49.418Z,158.10
2022-11-19T23:11:02.441Z,172.70
2022-11-19T23:13:23.094Z,213.25
2022-11-19T23:15:24.549Z,191.50
2022-11-19T23:17:26.072Z,185.63
2022-11-19T23:19:27.647Z,242.80
2022-11-19T23:21:29.536Z,245.45
2022-11-19T23:23:31.227Z,196.98
2022-11-19T23:25:32.639Z,211.40
2022-11-19T23:27:34.036Z,244.77
2022-11-19T23:29:35.475Z,168.73
2022-11-19T23:31:40.689Z,171.57
2022-11-19T23:33:42.499Z,142.82
2022-11-19T23:35:44.033Z,148.18
2022-11-19T23:37:45.522Z,129.25
2022-11-19T23:39:46.928Z,145.65
2022-11-19T23:41:48.465Z,143.75
2022-11-19T23:43:51.136Z,144.27
2022-11-19T23:45:52.641Z,138.68
2022-11-19T23:47:54.069Z,136.63
2022-11-19T23:49:55.640Z,144.38
2022-11-19T23:51:57.077Z,191.40
2022-11-19T23:53:58.982Z,185.98
2022-11-19T23:56:00.609Z,170.48
2022-11-19T23:58:02.062Z,167.65
